createdAt,value
2023-05-25T00:00:20.737Z,100.00
2023-05-25T00:02:47.844Z,100.00
2023-05-25T00:05:15.228Z,100.00
2023-05-25T00:07:41.981Z,100.00
2023-05-25T00:10:09.369Z,100.00
2023-05-25T00:12:37.854Z,100.00
2023-05-25T00:15:08.155Z,100.00
2023-05-25T00:17:37.423Z,100.00
2023-05-25T00:20:07.726Z,100.00
2023-05-25T00:22:35.922Z,100.00
2023-05-25T00:25:06.916Z,100.00
2023-05-25T00:27:33.757Z,100.00
2023-05-25T00:30:00.649Z,100.00
2023-05-25T00:32:27.743Z,98.02
2023-05-25T00:34:55.044Z,90.06
2023-05-25T00:37:22.059Z,89.99
2023-05-25T00:39:49.818Z,85.00
2023-05-25T00:42:16.759Z,86.51
2023-05-25T00:44:43.885Z,85.15
2023-05-25T00:47:11.832Z,83.08
2023-05-25T00:49:38.663Z,84.29
2023-05-25T00:52:06.348Z,85.23
2023-05-25T00:54:35.260Z,87.26
2023-05-25T00:57:07.388Z,89.76
2023-05-25T00:59:40.878Z,89.85
2023-05-25T01:02:10.749Z,92.31
2023-05-25T01:04:45.460Z,95.31
2023-05-25T01:07:17.810Z,100.00
2023-05-25T01:09:46.759Z,100.00
2023-05-25T01:12:16.317Z,100.00
2023-05-25T01:14:43.790Z,100.00
2023-05-25T01:17:11.197Z,100.00
2023-05-25T01:19:41.089Z,100.00
2023-05-25T01:22:20.020Z,100.00
2023-05-25T01:24:51.533Z,100.00
2023-05-25T01:27:40.547Z,100.00
2023-05-25T01:30:12.812Z,100.00
2023-05-25T01:32:42.550Z,100.00
2023-05-25T01:35:09.558Z,100.00
2023-05-25T01:37:40.367Z,100.00
2023-05-25T01:40:08.668Z,100.00
2023-05-25T01:42:35.574Z,100.00
2023-05-25T01:45:04.976Z,100.00
2023-05-25T01:48:06.526Z,100.00
2023-05-25T01:50:41.845Z,100.00
2023-05-25T01:53:22.872Z,100.00
2023-05-25T01:55:58.753Z,97.32
2023-05-25T01:58:28.209Z,96.31
2023-05-25T02:00:56.757Z,97.05
2023-05-25T02:03:23.647Z,100.00
2023-05-25T02:05:51.014Z,100.00
2023-05-25T02:08:17.999Z,100.00
2023-05-25T02:10:44.783Z,100.00
2023-05-25T02:13:12.407Z,100.00
2023-05-25T02:15:39.430Z,100.00
2023-05-25T02:18:06.195Z,100.00
2023-05-25T02:20:33.083Z,100.00
2023-05-25T02:22:59.928Z,100.00
2023-05-25T02:25:26.688Z,100.00
2023-05-25T02:27:54.891Z,100.00
2023-05-25T02:30:21.812Z,100.00
2023-05-25T02:32:48.601Z,100.00
2023-05-25T02:35:15.351Z,100.00
2023-05-25T02:37:42.583Z,100.00
2023-05-25T02:40:10.893Z,100.00
2023-05-25T02:42:37.816Z,100.00
2023-05-25T02:45:06.523Z,100.00
2023-05-25T02:47:34.779Z,100.00
2023-05-25T02:50:01.722Z,100.00
2023-05-25T02:52:30.619Z,100.00
2023-05-25T02:54:59.057Z,100.00
2023-05-25T02:57:31.715Z,100.00
2023-05-25T02:59:59.689Z,100.00
2023-05-25T03:02:26.928Z,100.00
2023-05-25T03:04:53.932Z,100.00
2023-05-25T03:07:21.452Z,100.00
2023-05-25T03:09:49.053Z,100.00
2023-05-25T03:12:16.183Z,100.00
2023-05-25T03:14:42.951Z,100.00
2023-05-25T03:17:10.814Z,100.00
2023-05-25T03:19:37.586Z,100.00
2023-05-25T03:22:04.908Z,100.00
2023-05-25T03:24:33.726Z,100.00
2023-05-25T03:27:02.808Z,100.00
2023-05-25T03:29:29.546Z,100.00
2023-05-25T03:31:56.566Z,100.00
2023-05-25T03:34:26.686Z,100.00
2023-05-25T03:36:55.126Z,100.00
2023-05-25T03:39:22.325Z,100.00
2023-05-25T03:41:51.342Z,100.00
2023-05-25T03:44:18.558Z,100.00
2023-05-25T03:46:45.529Z,100.00
2023-05-25T03:49:14.291Z,100.00
2023-05-25T03:51:43.074Z,100.00
2023-05-25T03:54:10.329Z,100.00
2023-05-25T03:56:37.103Z,100.00
2023-05-25T03:59:05.368Z,100.00
2023-05-25T04:01:32.311Z,100.00
2023-05-25T04:03:59.200Z,100.00
2023-05-25T04:06:26.116Z,100.00
2023-05-25T04:08:53.061Z,100.00
2023-05-25T04:11:22.629Z,100.00
2023-05-25T04:13:49.411Z,100.00
2023-05-25T04:16:17.217Z,100.00
2023-05-25T04:18:44.042Z,100.00
2023-05-25T04:21:10.960Z,100.00
2023-05-25T04:23:37.694Z,100.00
2023-05-25T04:26:06.083Z,100.00
2023-05-25T04:28:32.932Z,100.00
2023-05-25T04:31:18.594Z,100.00
2023-05-25T04:33:59.613Z,100.00
2023-05-25T04:36:32.704Z,100.00
2023-05-25T04:39:04.633Z,100.00
2023-05-25T04:41:34.176Z,100.00
2023-05-25T04:44:09.688Z,100.00
2023-05-25T04:46:44.950Z,100.00
2023-05-25T04:49:19.931Z,100.00
2023-05-25T04:51:46.957Z,100.00
2023-05-25T04:54:14.622Z,100.00
2023-05-25T04:56:41.638Z,100.00
2023-05-25T04:59:09.206Z,100.00
2023-05-25T05:01:41.053Z,100.00
2023-05-25T05:04:10.357Z,100.00
2023-05-25T05:06:39.034Z,100.00
2023-05-25T05:09:06.856Z,100.00
2023-05-25T05:11:33.643Z,100.00
2023-05-25T05:14:00.487Z,100.00
2023-05-25T05:16:33.839Z,100.00
2023-05-25T05:19:02.069Z,100.00
2023-05-25T05:21:29.619Z,100.00
2023-05-25T05:23:56.872Z,100.00
2023-05-25T05:26:23.699Z,100.00
2023-05-25T05:28:52.655Z,100.00
2023-05-25T05:31:23.142Z,100.00
2023-05-25T05:33:50.133Z,100.00
2023-05-25T05:36:17.675Z,100.00
2023-05-25T05:38:46.801Z,100.00
2023-05-25T05:41:14.458Z,100.00
2023-05-25T05:43:46.652Z,100.00
2023-05-25T05:46:13.531Z,100.00
2023-05-25T05:48:41.500Z,100.00
2023-05-25T05:51:08.389Z,100.00
2023-05-25T05:53:37.974Z,100.00
2023-05-25T05:56:04.913Z,100.00
2023-05-25T05:58:32.651Z,100.00
2023-05-25T06:01:00.244Z,100.00
2023-05-25T06:03:30.198Z,99.56
2023-05-25T06:05:57.061Z,95.23
2023-05-25T06:08:24.264Z,96.08
2023-05-25T06:10:51.235Z,99.03
2023-05-25T06:13:18.040Z,100.00
2023-05-25T06:15:45.077Z,100.00
2023-05-25T06:18:17.278Z,100.00
2023-05-25T06:20:44.528Z,100.00
2023-05-25T06:23:14.057Z,100.00
2023-05-25T06:25:41.064Z,99.77
2023-05-25T06:28:07.894Z,95.71
2023-05-25T06:30:35.060Z,100.00
2023-05-25T06:33:03.242Z,98.16
2023-05-25T06:35:30.103Z,98.99
2023-05-25T06:37:57.246Z,95.12
2023-05-25T06:40:24.006Z,98.14
2023-05-25T06:42:50.818Z,100.00
2023-05-25T06:45:36.166Z,100.00
2023-05-25T06:48:03.239Z,96.27
2023-05-25T06:50:30.646Z,96.99
2023-05-25T06:52:59.114Z,96.42
2023-05-25T06:55:27.103Z,100.00
2023-05-25T06:57:53.956Z,96.92
2023-05-25T07:00:21.490Z,97.80
2023-05-25T07:02:48.384Z,95.66
2023-05-25T07:05:15.624Z,99.58
2023-05-25T07:07:42.483Z,93.87
2023-05-25T07:10:09.457Z,92.94
2023-05-25T07:12:36.271Z,91.90
2023-05-25T07:15:03.173Z,92.11
2023-05-25T07:17:31.532Z,91.99
2023-05-25T07:19:58.387Z,91.46
2023-05-25T07:22:25.888Z,88.98
2023-05-25T07:24:52.613Z,88.40
2023-05-25T07:27:19.880Z,89.63
2023-05-25T07:29:46.626Z,92.28
2023-05-25T07:32:13.392Z,88.86
2023-05-25T07:34:40.177Z,88.65
2023-05-25T07:37:06.898Z,85.53
2023-05-25T07:39:33.665Z,84.61
2023-05-25T07:42:02.037Z,85.01
2023-05-25T07:44:30.122Z,83.36
2023-05-25T07:46:57.014Z,82.53
2023-05-25T07:49:23.837Z,81.08
2023-05-25T07:51:50.889Z,81.86
2023-05-25T07:54:17.586Z,80.51
2023-05-25T07:56:44.317Z,81.52
2023-05-25T07:59:11.054Z,78.90
2023-05-25T08:01:39.053Z,78.94
2023-05-25T08:04:06.334Z,80.87
2023-05-25T08:06:34.371Z,78.78
2023-05-25T08:09:03.049Z,76.13
2023-05-25T08:11:31.349Z,78.84
2023-05-25T08:13:58.058Z,74.91
2023-05-25T08:16:24.865Z,77.54
2023-05-25T08:18:52.657Z,79.44
2023-05-25T08:21:19.696Z,78.38
2023-05-25T08:23:46.466Z,78.07
2023-05-25T08:28:42.795Z,76.17
2023-05-25T08:31:09.685Z,74.74
2023-05-25T08:33:38.022Z,76.28
2023-05-25T08:36:05.431Z,76.05
2023-05-25T08:38:32.255Z,77.90
2023-05-25T08:41:06.759Z,76.02
2023-05-25T08:43:34.498Z,75.31
2023-05-25T08:46:06.199Z,74.86
2023-05-25T08:48:42.513Z,74.58
2023-05-25T08:51:13.333Z,73.65
2023-05-25T08:53:41.600Z,71.68
2023-05-25T08:56:19.249Z,73.69
2023-05-25T08:58:53.913Z,75.94
2023-05-25T09:01:24.317Z,76.52
2023-05-25T09:03:51.866Z,75.42
2023-05-25T09:06:19.317Z,72.49
2023-05-25T09:08:46.659Z,72.71
2023-05-25T09:11:16.977Z,74.46
2023-05-25T09:13:46.368Z,73.54
2023-05-25T09:16:13.301Z,71.32
2023-05-25T09:18:40.400Z,70.04
2023-05-25T09:21:07.109Z,73.37
2023-05-25T09:23:35.486Z,73.43
2023-05-25T09:26:02.579Z,75.08
2023-05-25T09:28:29.326Z,75.48
2023-05-25T09:30:56.292Z,75.26
2023-05-25T09:33:23.164Z,73.52
2023-05-25T09:35:51.681Z,73.23
2023-05-25T09:38:18.965Z,75.13
2023-05-25T09:40:46.282Z,72.81
2023-05-25T09:43:19.691Z,73.21
2023-05-25T09:45:55.888Z,73.39
2023-05-25T09:48:24.298Z,74.33
2023-05-25T09:50:51.964Z,74.82
2023-05-25T09:53:18.976Z,73.20
2023-05-25T09:55:53.745Z,71.45
2023-05-25T09:58:24.929Z,72.41
2023-05-25T10:00:55.458Z,70.87
2023-05-25T10:03:22.776Z,71.47
2023-05-25T10:05:49.947Z,71.47
2023-05-25T10:08:20.115Z,72.34
2023-05-25T10:10:50.067Z,72.49
2023-05-25T10:13:22.701Z,71.29
2023-05-25T10:15:53.529Z,70.47
2023-05-25T10:18:25.915Z,70.40
2023-05-25T10:21:01.825Z,71.11
2023-05-25T10:23:38.056Z,70.41
2023-05-25T10:26:06.560Z,73.13
2023-05-25T10:28:39.439Z,71.99
2023-05-25T10:31:07.168Z,70.98
2023-05-25T10:33:34.509Z,71.80
2023-05-25T10:36:10.839Z,69.46
2023-05-25T10:38:40.375Z,68.10
2023-05-25T10:41:10.964Z,69.91
2023-05-25T10:43:39.113Z,67.72
2023-05-25T10:46:07.112Z,68.74
2023-05-25T10:48:45.928Z,70.21
2023-05-25T10:51:14.241Z,68.30
2023-05-25T10:53:47.912Z,69.38
2023-05-25T10:56:14.829Z,67.12
2023-05-25T10:58:44.323Z,62.89
2023-05-25T11:01:12.800Z,63.40
2023-05-25T11:03:45.981Z,63.22
2023-05-25T11:06:21.657Z,64.77
2023-05-25T11:09:06.664Z,65.27
2023-05-25T11:11:42.392Z,64.31
2023-05-25T11:14:30.398Z,62.80
2023-05-25T11:17:15.553Z,63.84
2023-05-25T11:19:43.586Z,61.81
2023-05-25T11:22:16.398Z,62.96
2023-05-25T11:24:46.530Z,62.33
2023-05-25T11:27:13.762Z,60.64
2023-05-25T11:29:41.071Z,61.09
2023-05-25T11:32:14.851Z,61.39
2023-05-25T11:34:46.834Z,59.84
2023-05-25T11:37:21.264Z,60.30
2023-05-25T11:39:49.426Z,59.81
2023-05-25T11:42:17.683Z,59.80
2023-05-25T11:44:47.563Z,58.91
2023-05-25T11:47:18.733Z,57.67
2023-05-25T11:49:47.406Z,56.30
2023-05-25T11:52:15.717Z,56.56
2023-05-25T11:54:42.616Z,55.17
2023-05-25T11:57:18.310Z,55.84
2023-05-25T11:59:50.304Z,54.64
2023-05-25T12:02:20.333Z,54.20
2023-05-25T12:04:58.560Z,54.87
2023-05-25T12:07:26.558Z,56.47
2023-05-25T12:10:11.603Z,55.56
2023-05-25T12:12:46.328Z,56.21
2023-05-25T12:15:19.089Z,54.50
2023-05-25T12:17:51.644Z,53.70
2023-05-25T12:20:19.547Z,54.10
2023-05-25T12:22:47.353Z,54.71
2023-05-25T12:25:18.505Z,53.05
2023-05-25T12:27:45.379Z,51.45
2023-05-25T12:30:12.414Z,50.15
2023-05-25T12:33:01.655Z,46.96
2023-05-25T12:35:30.410Z,44.11
2023-05-25T12:38:22.215Z,39.00
2023-05-25T12:41:05.414Z,35.03
2023-05-25T12:43:39.589Z,32.86
2023-05-25T12:46:06.493Z,31.73
2023-05-25T12:48:33.341Z,32.74
2023-05-25T12:51:02.485Z,35.65
2023-05-25T12:53:31.120Z,40.55
2023-05-25T12:56:04.974Z,43.47
2023-05-25T12:58:31.936Z,47.91
2023-05-25T13:00:58.948Z,49.70
2023-05-25T13:03:25.803Z,51.57
2023-05-25T13:06:00.405Z,52.61
2023-05-25T13:08:27.251Z,52.63
2023-05-25T13:10:54.154Z,53.69
2023-05-25T13:13:20.983Z,54.98
2023-05-25T13:15:47.684Z,55.67
2023-05-25T13:18:14.578Z,56.98
2023-05-25T13:20:41.899Z,57.84
2023-05-25T13:23:08.835Z,56.74
2023-05-25T13:25:36.289Z,56.67
2023-05-25T13:28:03.218Z,57.62
2023-05-25T13:30:29.975Z,57.72
2023-05-25T13:32:56.978Z,57.56
2023-05-25T13:35:45.962Z,57.56
2023-05-25T13:38:14.639Z,56.93
2023-05-25T13:40:44.099Z,58.39
2023-05-25T13:43:11.175Z,58.27
2023-05-25T13:45:38.602Z,58.26
2023-05-25T13:48:05.568Z,59.27
2023-05-25T13:50:32.316Z,59.46
2023-05-25T13:52:59.186Z,59.85
2023-05-25T13:55:28.854Z,60.65
2023-05-25T13:57:55.645Z,59.93
2023-05-25T14:00:22.615Z,61.04
2023-05-25T14:02:49.597Z,62.17
2023-05-25T14:05:16.425Z,60.99
2023-05-25T14:07:44.663Z,63.84
2023-05-25T14:10:11.520Z,62.93
2023-05-25T14:12:38.750Z,59.46
2023-05-25T14:15:09.017Z,60.50
2023-05-25T14:17:35.964Z,61.33
2023-05-25T14:20:06.519Z,60.39
2023-05-25T14:22:33.436Z,63.18
2023-05-25T14:25:00.376Z,65.09
2023-05-25T14:27:27.625Z,63.77
2023-05-25T14:29:54.414Z,62.87
2023-05-25T14:32:21.304Z,61.01
2023-05-25T14:34:48.023Z,61.11
2023-05-25T14:37:14.669Z,62.20
2023-05-25T14:39:41.505Z,61.38
2023-05-25T14:42:08.359Z,61.40
2023-05-25T14:44:35.158Z,61.51
2023-05-25T14:47:01.923Z,63.04
2023-05-25T14:49:28.649Z,66.52
2023-05-25T14:51:55.416Z,62.42
2023-05-25T14:54:22.180Z,61.23
2023-05-25T14:56:48.954Z,61.33
2023-05-25T14:59:15.684Z,61.66
2023-05-25T15:01:42.522Z,61.98
2023-05-25T15:04:09.397Z,60.29
2023-05-25T15:06:36.928Z,61.42
2023-05-25T15:09:03.914Z,62.60
2023-05-25T15:11:30.893Z,61.43
2023-05-25T15:13:59.022Z,60.89
2023-05-25T15:16:26.343Z,60.99
2023-05-25T15:18:53.044Z,64.64
2023-05-25T15:21:19.857Z,63.76
2023-05-25T15:26:14.223Z,63.72
2023-05-25T15:28:40.960Z,61.79
2023-05-25T15:31:07.755Z,63.93
2023-05-25T15:33:50.207Z,63.76
2023-05-25T15:36:22.138Z,64.51
2023-05-25T15:38:49.490Z,63.88
2023-05-25T15:41:17.431Z,63.11
2023-05-25T15:43:58.668Z,63.56
2023-05-25T15:46:26.012Z,64.48
2023-05-25T15:48:53.592Z,66.57
2023-05-25T15:51:21.127Z,66.58
2023-05-25T15:53:48.151Z,64.96
2023-05-25T15:56:14.986Z,67.82
2023-05-25T15:58:41.725Z,61.37
2023-05-25T16:01:09.435Z,62.79
2023-05-25T16:03:36.925Z,63.05
2023-05-25T16:06:03.845Z,66.02
2023-05-25T16:08:30.648Z,66.86
2023-05-25T16:10:57.411Z,68.50
2023-05-25T16:13:24.227Z,63.72
2023-05-25T16:15:50.984Z,64.99
2023-05-25T16:18:17.788Z,66.86
2023-05-25T16:20:44.521Z,67.40
2023-05-25T16:23:11.407Z,66.66
2023-05-25T16:25:38.241Z,63.67
2023-05-25T16:28:05.050Z,64.54
2023-05-25T16:30:31.790Z,64.27
2023-05-25T16:32:58.654Z,64.24
2023-05-25T16:35:25.380Z,64.13
2023-05-25T16:37:52.188Z,66.23
2023-05-25T16:40:18.950Z,68.24
2023-05-25T16:42:45.792Z,67.97
2023-05-25T16:45:12.518Z,66.81
2023-05-25T16:47:39.329Z,65.14
2023-05-25T16:50:06.710Z,67.28
2023-05-25T16:52:36.453Z,67.11
2023-05-25T16:55:03.498Z,66.05
2023-05-25T16:57:30.287Z,64.22
2023-05-25T16:59:57.027Z,65.46
2023-05-25T17:02:23.825Z,68.34
2023-05-25T17:04:50.659Z,68.51
2023-05-25T17:07:17.958Z,68.86
2023-05-25T17:09:44.622Z,70.24
2023-05-25T17:12:11.407Z,72.31
2023-05-25T17:14:38.184Z,68.67
2023-05-25T17:17:07.181Z,69.01
2023-05-25T17:19:34.733Z,67.77
2023-05-25T17:22:01.459Z,71.05
2023-05-25T17:24:28.203Z,72.03
2023-05-25T17:26:54.976Z,71.52
2023-05-25T17:29:21.779Z,70.25
2023-05-25T17:31:49.138Z,73.39
2023-05-25T17:34:16.656Z,76.19
2023-05-25T17:36:43.409Z,75.23
2023-05-25T17:39:10.122Z,73.61
2023-05-25T17:41:36.829Z,74.05
2023-05-25T17:44:03.581Z,75.67
2023-05-25T17:46:30.668Z,74.37
2023-05-25T17:48:57.590Z,73.01
2023-05-25T17:51:24.414Z,71.70
2023-05-25T17:53:51.129Z,73.33
2023-05-25T17:56:17.873Z,73.15
2023-05-25T17:58:47.733Z,73.54
2023-05-25T18:01:15.680Z,72.72
2023-05-25T18:03:42.906Z,75.17
2023-05-25T18:06:10.251Z,80.40
2023-05-25T18:08:36.978Z,81.53
2023-05-25T18:11:03.904Z,84.36
2023-05-25T18:13:30.742Z,85.72
2023-05-25T18:15:59.774Z,87.36
2023-05-25T18:18:26.626Z,90.79
2023-05-25T18:20:53.559Z,87.08
2023-05-25T18:23:22.204Z,90.39
2023-05-25T18:25:48.965Z,90.84
2023-05-25T18:28:15.798Z,85.97
2023-05-25T18:30:42.967Z,90.09
2023-05-25T18:33:10.719Z,88.51
2023-05-25T18:35:38.178Z,90.06
2023-05-25T18:38:05.436Z,88.81
2023-05-25T18:40:32.557Z,90.83
2023-05-25T18:42:59.281Z,95.55
2023-05-25T18:45:26.153Z,94.59
2023-05-25T18:47:53.065Z,91.45
2023-05-25T18:50:20.427Z,94.28
2023-05-25T18:52:50.860Z,94.37
2023-05-25T18:55:18.677Z,94.29
2023-05-25T18:57:45.691Z,91.90
2023-05-25T19:00:13.206Z,94.18
2023-05-25T19:02:40.023Z,95.29
2023-05-25T19:05:07.507Z,96.49
2023-05-25T19:07:37.744Z,96.68
2023-05-25T19:10:09.046Z,95.47
2023-05-25T19:12:35.899Z,93.21
2023-05-25T19:15:03.581Z,93.69
2023-05-25T19:17:31.228Z,97.63
2023-05-25T19:19:58.056Z,98.28
2023-05-25T19:22:27.793Z,100.00
2023-05-25T19:25:00.777Z,100.00
2023-05-25T19:27:28.200Z,100.00
2023-05-25T19:29:54.826Z,100.00
2023-05-25T19:32:21.611Z,100.00
2023-05-25T19:34:48.477Z,100.00
2023-05-25T19:37:15.262Z,100.00
2023-05-25T19:39:44.584Z,100.00
2023-05-25T19:42:11.416Z,100.00
2023-05-25T19:44:40.506Z,100.00
2023-05-25T19:47:07.854Z,100.00
2023-05-25T19:49:34.652Z,100.00
2023-05-25T19:52:01.683Z,100.00
2023-05-25T19:54:28.419Z,100.00
2023-05-25T19:56:57.832Z,100.00
2023-05-25T19:59:28.084Z,100.00
2023-05-25T20:01:55.594Z,100.00
2023-05-25T20:04:22.981Z,100.00
2023-05-25T20:06:52.130Z,100.00
2023-05-25T20:09:19.041Z,100.00
2023-05-25T20:11:48.340Z,100.00
2023-05-25T20:14:15.642Z,100.00
2023-05-25T20:16:43.611Z,100.00
2023-05-25T20:19:11.732Z,100.00
2023-05-25T20:21:38.473Z,100.00
2023-05-25T20:24:05.194Z,100.00
2023-05-25T20:26:32.124Z,100.00
2023-05-25T20:28:58.966Z,100.00
2023-05-25T20:31:25.789Z,100.00
2023-05-25T20:33:52.474Z,100.00
2023-05-25T20:36:19.255Z,100.00
2023-05-25T20:38:46.007Z,100.00
2023-05-25T20:41:13.443Z,100.00
2023-05-25T20:43:40.834Z,100.00
2023-05-25T20:46:11.265Z,100.00
2023-05-25T20:48:39.327Z,100.00
2023-05-25T20:51:06.209Z,100.00
2023-05-25T20:53:33.353Z,100.00
2023-05-25T20:56:01.693Z,100.00
2023-05-25T20:58:28.391Z,100.00
2023-05-25T21:00:55.124Z,100.00
2023-05-25T21:03:21.969Z,100.00
2023-05-25T21:05:48.910Z,100.00
2023-05-25T21:08:15.961Z,100.00
2023-05-25T21:10:44.768Z,100.00
2023-05-25T21:13:11.639Z,100.00
2023-05-25T21:15:38.380Z,100.00
2023-05-25T21:18:07.060Z,100.00
2023-05-25T21:20:34.146Z,100.00
2023-05-25T21:23:02.476Z,100.00
2023-05-25T21:25:32.429Z,100.00
2023-05-25T21:27:59.405Z,100.00
2023-05-25T21:30:26.605Z,100.00
2023-05-25T21:32:53.474Z,100.00
2023-05-25T21:35:20.958Z,100.00
2023-05-25T21:37:47.640Z,100.00
2023-05-25T21:40:14.539Z,100.00
2023-05-25T21:42:41.247Z,100.00
2023-05-25T21:45:08.547Z,100.00
2023-05-25T21:47:35.310Z,100.00
2023-05-25T21:50:02.049Z,100.00
2023-05-25T21:52:28.841Z,100.00
2023-05-25T21:54:55.674Z,100.00
2023-05-25T21:57:22.421Z,100.00
2023-05-25T21:59:49.273Z,100.00
2023-05-25T22:02:16.081Z,100.00
2023-05-25T22:04:42.896Z,100.00
2023-05-25T22:07:09.694Z,100.00
2023-05-25T22:09:36.511Z,100.00
2023-05-25T22:12:03.535Z,100.00
2023-05-25T22:14:30.579Z,100.00
2023-05-25T22:16:57.376Z,100.00
2023-05-25T22:19:24.112Z,100.00
2023-05-25T22:21:50.916Z,100.00
2023-05-25T22:24:17.693Z,100.00
2023-05-25T22:26:44.508Z,100.00
2023-05-25T22:29:12.034Z,100.00
2023-05-25T22:34:05.546Z,100.00
2023-05-25T22:36:32.294Z,100.00
2023-05-25T22:38:59.377Z,100.00
2023-05-25T22:41:26.585Z,100.00
2023-05-25T22:43:54.002Z,100.00
2023-05-25T22:46:21.030Z,100.00
2023-05-25T22:48:47.725Z,100.00
2023-05-25T22:51:14.547Z,100.00
2023-05-25T22:53:41.672Z,100.00
2023-05-25T22:56:08.573Z,100.00
2023-05-25T22:58:35.432Z,100.00
2023-05-25T23:01:02.131Z,100.00
2023-05-25T23:03:30.180Z,100.00
2023-05-25T23:05:57.179Z,100.00
2023-05-25T23:08:23.959Z,100.00
2023-05-25T23:10:50.775Z,100.00
2023-05-25T23:13:19.154Z,100.00
2023-05-25T23:15:47.486Z,100.00
2023-05-25T23:18:14.481Z,100.00
2023-05-25T23:20:41.866Z,100.00
2023-05-25T23:23:08.910Z,100.00
2023-05-25T23:25:36.511Z,100.00
2023-05-25T23:28:03.352Z,100.00
2023-05-25T23:30:30.191Z,100.00
2023-05-25T23:32:56.916Z,100.00
2023-05-25T23:35:23.730Z,100.00
2023-05-25T23:37:52.012Z,100.00
2023-05-25T23:40:19.107Z,100.00
2023-05-25T23:42:46.038Z,100.00
2023-05-25T23:45:13.801Z,100.00
2023-05-25T23:47:40.946Z,100.00
2023-05-25T23:50:08.166Z,100.00
2023-05-25T23:52:35.867Z,100.00
2023-05-25T23:55:02.802Z,100.00
2023-05-25T23:57:29.642Z,100.00
2023-05-25T23:59:56.500Z,100.00
